CAK3 weather

Delta Heritage Air Park
Delta, British Columbia, Canada

Public forecast

Using degrees Celsius for public forecast. Weather courtesy of forecast.io.

Closest aviation weather report (METAR) to Delta Heritage Air Park

Closest report is Vancouver International Airport, 11.8 nm (21.9 km) NW. Retrieved 2019/11/14 20:00 UTC (29 minutes ago):

CYVR 142000Z 24002KT 30SM FEW077 FEW150 SCT180 BKN250 11/07 A3001 RMK AC1AC1AS1CS3 SLP162

Closest aviation forecast (TAF) to Delta Heritage Air Park

Closest forecast is Vancouver International Airport, 11.8 nm (21.9 km) NW. Retrieved 2019/11/14 21:42 UTC (0 seconds ago):

TAF TAF CYVR 142038Z 1421/1524 30005KT P6SM FEW080 SCT120 TEMPO 1421/1503 BKN120 BECMG 1423/1501 10005KT FM150300 10005KT P6SM SCT040 BKN100 TEMPO 1505/1508 P6SM -RA BKN040 FM150800 10008KT P6SM -RA SCT020 BKN050 TEMPO 1508/1511 4SM -RA BR BKN020 FM151100 10008KT P6SM -RA SCT008 OVC020 TEMPO 1511/1515 3SM -SHRA BR BKN008 FM151500 10008KT P6SM SCT006 OVC025 TEMPO 1515/1519 2SM -SHRA BR BKN006 BECMG 1516/1518 15010KT FM151900 23008KT P6SM SCT020 BKN030 TEMPO 1519/1524 5SM -SHRA BR RMK NXT FCST BY 150000Z